Time,TemperatureF,DewpointF,PressureIn,WindDirection,WindDirectionDegrees,WindSpeedMPH,WindSpeedGustMPH,Humidity,HourlyPrecipIn,Conditions,Clouds,dailyrainin,SoftwareType,DateUTC
2013-04-03 00:00:00,38.0,34.0,30.24,South,170,21.0,26.0,85,-99.99,,,-99.99,,2013-04-03 08:00:00,
2013-04-03 00:42:00,38.0,34.0,30.24,South,170,21.0,26.0,85,-99.99,,,-99.99,,2013-04-03 08:42:00,
2013-04-03 00:51:00,38.0,34.0,30.24,South,170,21.0,26.0,85,-99.99,,,-99.99,,2013-04-03 08:51:00,
2013-04-03 01:42:00,38.0,34.0,30.25,SSE,160,23.0,29.0,85,-99.99,,,-99.99,,2013-04-03 09:42:00,
2013-04-03 02:00:00,37.0,34.0,30.25,South,170,21.0,29.0,88,-99.99,,,-99.99,,2013-04-03 10:00:00,
2013-04-03 02:42:00,37.0,34.0,30.25,South,170,21.0,29.0,88,-99.99,,,-99.99,,2013-04-03 10:42:00,
2013-04-03 02:52:00,37.0,34.0,30.25,South,170,21.0,29.0,88,-99.99,,,-99.99,,2013-04-03 10:52:00,
2013-04-03 03:00:00,37.0,34.0,30.25,South,170,18.0,25.0,88,-99.99,,,-99.99,,2013-04-03 11:00:00,
2013-04-03 03:41:00,37.0,34.0,30.25,South,170,18.0,25.0,88,-99.99,,,-99.99,,2013-04-03 11:41:00,
2013-04-03 03:52:00,37.0,34.0,30.25,South,170,18.0,25.0,88,-99.99,,,-99.99,,2013-04-03 11:52:00,
2013-04-03 04:00:00,37.0,32.0,30.26,ESE,110,9.0,23.0,81,-99.99,,,-99.99,,2013-04-03 12:00:00,
2013-04-03 04:41:00,37.0,32.0,30.26,ESE,110,9.0,23.0,81,-99.99,,,-99.99,,2013-04-03 12:41:00,
2013-04-03 04:52:00,37.0,32.0,30.26,ESE,110,9.0,23.0,81,-99.99,,,-99.99,,2013-04-03 12:52:00,
2013-04-03 05:41:00,36.0,33.0,30.26,WNW,290,7.0,14.0,89,-99.99,,,-99.99,,2013-04-03 13:41:00,
2013-04-03 05:52:00,36.0,33.0,30.26,WNW,290,7.0,14.0,89,-99.99,,,-99.99,,2013-04-03 13:52:00,
2013-04-03 06:41:00,34.0,31.0,30.26,NW,310,10.0,13.0,88,-99.99,,,-99.99,,2013-04-03 14:41:00,
2013-04-03 06:51:00,34.0,31.0,30.26,NW,310,10.0,13.0,88,-99.99,,,-99.99,,2013-04-03 14:51:00,
2013-04-03 07:00:00,33.0,31.0,30.25,NW,320,13.0,16.0,91,-99.99,,,-99.99,,2013-04-03 15:00:00,
2013-04-03 07:42:00,33.0,31.0,30.25,NW,320,13.0,16.0,91,-99.99,,,-99.99,,2013-04-03 15:42:00,
2013-04-03 07:53:00,33.0,31.0,30.25,NW,320,13.0,16.0,91,-99.99,,,-99.99,,2013-04-03 15:53:00,
2013-04-03 08:00:00,33.0,32.0,30.25,NNW,330,8.0,15.0,95,-99.99,,,-99.99,,2013-04-03 16:00:00,
2013-04-03 08:42:00,33.0,32.0,30.25,NNW,330,8.0,15.0,95,-99.99,,,-99.99,,2013-04-03 16:42:00,
2013-04-03 08:52:00,33.0,32.0,30.25,NNW,330,8.0,15.0,95,-99.99,,,-99.99,,2013-04-03 16:52:00,
2013-04-03 09:00:00,34.0,32.0,30.25,NNW,330,13.0,16.0,92,-99.99,,,-99.99,,2013-04-03 17:00:00,
2013-04-03 09:44:00,34.0,32.0,30.25,NNW,330,13.0,16.0,92,-99.99,,,-99.99,,2013-04-03 17:44:00,
2013-04-03 09:52:00,34.0,32.0,30.25,NNW,330,13.0,16.0,92,-99.99,,,-99.99,,2013-04-03 17:52:00,
2013-04-03 10:00:00,34.0,32.0,30.25,NNW,340,10.0,15.0,92,-99.99,,,-99.99,,2013-04-03 18:00:00,
2013-04-03 10:41:00,34.0,32.0,30.25,NNW,340,10.0,15.0,92,-99.99,,,-99.99,,2013-04-03 18:41:00,
2013-04-03 10:52:00,34.0,32.0,30.25,NNW,340,10.0,15.0,92,-99.99,,,-99.99,,2013-04-03 18:52:00,
2013-04-03 11:00:00,35.0,33.0,30.25,NW,320,8.0,13.0,92,-99.99,,,-99.99,,2013-04-03 19:00:00,
2013-04-03 11:41:00,35.0,33.0,30.25,NW,320,8.0,13.0,92,-99.99,,,-99.99,,2013-04-03 19:41:00,
2013-04-03 11:52:00,35.0,33.0,30.25,NW,320,8.0,13.0,92,-99.99,,,-99.99,,2013-04-03 19:52:00,
2013-04-03 12:00:00,37.0,32.0,30.24,NNW,330,7.0,10.0,81,-99.99,,,-99.99,,2013-04-03 20:00:00,
2013-04-03 12:42:00,37.0,32.0,30.24,NNW,330,7.0,10.0,81,-99.99,,,-99.99,,2013-04-03 20:42:00,
2013-04-03 12:52:00,37.0,32.0,30.24,NNW,330,7.0,10.0,81,-99.99,,,-99.99,,2013-04-03 20:52:00,
2013-04-03 13:00:00,38.0,31.0,30.23,North,360,5.0,9.0,75,-99.99,,,-99.99,,2013-04-03 21:00:00,
2013-04-03 13:42:00,38.0,31.0,30.23,North,360,5.0,9.0,75,-99.99,,,-99.99,,2013-04-03 21:42:00,
2013-04-03 13:52:00,38.0,31.0,30.23,North,360,5.0,9.0,75,-99.99,,,-99.99,,2013-04-03 21:52:00,
2013-04-03 14:00:00,40.0,32.0,30.23,North,10,1.0,6.0,73,-99.99,,,-99.99,,2013-04-03 22:00:00,
2013-04-03 14:42:00,40.0,32.0,30.23,North,10,1.0,6.0,73,-99.99,,,-99.99,,2013-04-03 22:42:00,
2013-04-03 14:52:00,40.0,32.0,30.23,North,10,1.0,6.0,73,-99.99,,,-99.99,,2013-04-03 22:52:00,
2013-04-03 15:00:00,43.0,32.0,30.22,WSW,250,1.0,3.0,64,-99.99,,,-99.99,,2013-04-03 23:00:00,
2013-04-03 15:42:00,43.0,32.0,30.22,WSW,250,1.0,3.0,64,-99.99,,,-99.99,,2013-04-03 23:42:00,
2013-04-03 15:52:00,43.0,32.0,30.22,WSW,250,1.0,3.0,64,-99.99,,,-99.99,,2013-04-03 23:52:00,
2013-04-03 16:00:00,43.0,31.0,30.21,North,0,0.0,3.0,62,-99.99,,,-99.99,,2013-04-04 00:00:00,
2013-04-03 16:42:00,43.0,31.0,30.21,North,0,0.0,3.0,62,-99.99,,,-99.99,,2013-04-04 00:42:00,
2013-04-03 16:51:00,43.0,31.0,30.21,North,0,0.0,3.0,62,-99.99,,,-99.99,,2013-04-04 00:51:00,
2013-04-03 17:00:00,43.0,32.0,30.19,SW,230,5.0,6.0,64,-99.99,,,-99.99,,2013-04-04 01:00:00,
2013-04-03 17:42:00,43.0,32.0,30.19,SW,230,5.0,6.0,64,-99.99,,,-99.99,,2013-04-04 01:42:00,
2013-04-03 17:52:00,43.0,32.0,30.19,SW,230,5.0,6.0,64,-99.99,,,-99.99,,2013-04-04 01:52:00,
2013-04-03 18:00:00,43.0,31.0,30.18,North,0,0.0,7.0,62,-99.99,,,-99.99,,2013-04-04 02:00:00,
2013-04-03 19:00:00,41.0,32.0,30.16,WNW,290,3.0,7.0,70,-99.99,,,-99.99,,2013-04-04 03:00:00,
2013-04-03 19:43:00,41.0,32.0,30.16,WNW,290,3.0,7.0,70,-99.99,,,-99.99,,2013-04-04 03:43:00,
2013-04-03 19:53:00,41.0,32.0,30.16,WNW,290,3.0,7.0,70,-99.99,,,-99.99,,2013-04-04 03:53:00,
2013-04-03 20:00:00,37.0,31.0,30.15,NW,310,6.0,8.0,78,-99.99,,,-99.99,,2013-04-04 04:00:00,
2013-04-03 20:42:00,37.0,31.0,30.15,NW,310,6.0,8.0,78,-99.99,,,-99.99,,2013-04-04 04:42:00,
2013-04-03 20:52:00,37.0,31.0,30.15,NW,310,6.0,8.0,78,-99.99,,,-99.99,,2013-04-04 04:52:00,
2013-04-03 21:00:00,38.0,28.0,30.14,NNW,330,17.0,20.0,67,-99.99,,,-99.99,,2013-04-04 05:00:00,
2013-04-03 21:41:00,38.0,28.0,30.14,NNW,330,17.0,20.0,67,-99.99,,,-99.99,,2013-04-04 05:41:00,
2013-04-03 21:52:00,38.0,28.0,30.14,NNW,330,17.0,20.0,67,-99.99,,,-99.99,,2013-04-04 05:52:00,
2013-04-03 22:00:00,37.0,27.0,30.13,NNW,340,21.0,25.0,66,-99.99,,,-99.99,,2013-04-04 06:00:00,
2013-04-03 22:42:00,37.0,27.0,30.13,NNW,340,21.0,25.0,66,-99.99,,,-99.99,,2013-04-04 06:42:00,
2013-04-03 22:51:00,37.0,27.0,30.13,NNW,340,21.0,25.0,66,-99.99,,,-99.99,,2013-04-04 06:51:00,
2013-04-03 23:00:00,36.0,28.0,30.13,NNW,340,24.0,29.0,72,-99.99,,,-99.99,,2013-04-04 07:00:00,
2013-04-03 23:42:00,36.0,28.0,30.13,NNW,340,24.0,29.0,72,-99.99,,,-99.99,,2013-04-04 07:42:00,
2013-04-03 23:51:00,36.0,28.0,30.13,NNW,340,24.0,29.0,72,-99.99,,,-99.99,,2013-04-04 07:51:00,